createdAt,value
2023-04-04T00:01:45.205Z,-1.40
2023-04-04T00:03:30.702Z,-1.42
2023-04-04T00:05:04.727Z,-1.44
2023-04-04T00:06:49.957Z,-1.46
2023-04-04T00:08:30.737Z,-1.48
2023-04-04T00:10:07.489Z,-1.47
2023-04-04T00:11:52.702Z,-1.48
2023-04-04T00:13:41.521Z,-1.51
2023-04-04T00:15:17.906Z,-1.53
2023-04-04T00:16:55.373Z,-1.55
2023-04-04T00:18:31.869Z,-1.55
2023-04-04T00:19:53.722Z,-1.54
2023-04-04T00:21:27.315Z,-1.54
2023-04-04T00:23:08.582Z,-1.53
2023-04-04T00:24:41.597Z,-1.55
2023-04-04T00:26:27.137Z,-1.55
2023-04-04T00:28:12.567Z,-1.56
2023-04-04T00:29:48.230Z,-1.56
2023-04-04T00:31:29.476Z,-1.57
2023-04-04T00:33:10.683Z,-1.60
2023-04-04T00:34:43.679Z,-1.59
2023-04-04T00:36:19.149Z,-1.61
2023-04-04T00:37:42.788Z,-1.71
2023-04-04T00:39:17.388Z,-1.60
2023-04-04T00:41:02.706Z,-1.62
2023-04-04T00:42:24.607Z,-1.62
2023-04-04T00:43:57.940Z,-1.63
2023-04-04T00:45:51.644Z,-1.66
2023-04-04T00:47:16.638Z,-1.67
2023-04-04T00:48:52.376Z,-1.69
2023-04-04T00:50:38.001Z,-1.71
2023-04-04T00:52:07.898Z,-1.73
2023-04-04T00:53:43.336Z,-1.76
2023-04-04T00:55:25.227Z,-1.79
2023-04-04T00:56:59.864Z,-1.80
2023-04-04T00:58:33.094Z,-1.77
2023-04-04T01:00:06.774Z,-1.79
2023-04-04T01:01:45.407Z,-1.80
2023-04-04T01:03:19.249Z,-1.80
2023-04-04T01:04:52.288Z,-1.79
2023-04-04T01:06:16.930Z,-1.79
2023-04-04T01:07:45.628Z,-1.80
2023-04-04T01:09:28.260Z,-1.83
2023-04-04T01:11:12.189Z,-1.84
2023-04-04T01:12:42.062Z,-1.87
2023-04-04T01:14:23.294Z,-1.88
2023-04-04T01:16:08.052Z,-1.92
2023-04-04T01:17:49.804Z,-1.90
2023-04-04T01:19:23.544Z,-1.92
2023-04-04T01:20:57.213Z,-1.92
2023-04-04T01:22:30.723Z,-1.93
2023-04-04T01:24:04.548Z,-1.92
2023-04-04T01:26:03.640Z,-1.92
2023-04-04T01:27:49.421Z,-1.93
2023-04-04T01:29:20.299Z,-1.96
2023-04-04T01:31:05.051Z,-1.93
2023-04-04T01:32:49.338Z,-1.96
2023-04-04T01:34:31.825Z,-2.00
2023-04-04T01:36:05.134Z,-1.98
2023-04-04T01:37:27.927Z,-1.96
2023-04-04T01:39:01.463Z,-1.96
2023-04-04T01:40:38.167Z,-1.96
2023-04-04T01:42:09.180Z,-1.95
2023-04-04T01:43:59.972Z,-1.97
2023-04-04T01:45:47.396Z,-1.97
2023-04-04T01:47:33.608Z,-1.96
2023-04-04T01:49:23.053Z,-1.96
2023-04-04T01:51:08.832Z,-2.06
2023-04-04T01:52:53.612Z,-1.97
2023-04-04T01:54:31.180Z,-1.98
2023-04-04T01:56:04.916Z,-1.99
2023-04-04T01:57:49.173Z,-2.00
2023-04-04T01:59:24.684Z,-2.01
2023-04-04T02:00:57.991Z,-2.00
2023-04-04T02:02:39.968Z,-2.01
2023-04-04T02:04:25.502Z,-2.04
2023-04-04T02:05:49.609Z,-2.03
2023-04-04T02:07:34.892Z,-2.03
2023-04-04T02:09:28.460Z,-2.05
2023-04-04T02:11:13.605Z,-2.05
2023-04-04T02:12:44.465Z,-2.05
2023-04-04T02:14:08.757Z,-2.08
2023-04-04T02:15:50.608Z,-2.10
2023-04-04T02:17:35.949Z,-2.10
2023-04-04T02:18:59.716Z,-2.10
2023-04-04T02:20:35.688Z,-2.10
2023-04-04T02:22:20.955Z,-2.11
2023-04-04T02:23:44.837Z,-2.11
2023-04-04T02:25:25.521Z,-2.13
2023-04-04T02:27:06.486Z,-2.14
2023-04-04T02:28:51.513Z,-2.13
2023-04-04T02:30:25.086Z,-2.15
2023-04-04T02:32:10.120Z,-2.16
2023-04-04T02:33:43.354Z,-2.19
2023-04-04T02:35:19.546Z,-2.20
2023-04-04T02:37:08.751Z,-2.21
2023-04-04T02:39:01.847Z,-2.20
2023-04-04T02:40:42.748Z,-2.18
2023-04-04T02:42:16.997Z,-2.19
2023-04-04T02:43:56.906Z,-2.21
2023-04-04T02:45:45.612Z,-2.21
2023-04-04T02:47:30.929Z,-2.30
2023-04-04T02:49:06.018Z,-2.22
2023-04-04T02:50:46.595Z,-2.22
2023-04-04T02:52:27.763Z,-2.23
2023-04-04T02:54:12.572Z,-2.25
2023-04-04T02:56:00.462Z,-2.27
2023-04-04T02:57:46.769Z,-2.27
2023-04-04T02:59:22.467Z,-2.26
2023-04-04T03:01:07.750Z,-2.26
2023-04-04T03:02:45.906Z,-2.28
2023-04-04T03:04:23.025Z,-2.35
2023-04-04T03:05:56.477Z,-2.28
2023-04-04T03:07:37.526Z,-2.28
2023-04-04T03:09:23.267Z,-2.28
2023-04-04T03:10:56.375Z,-2.28
2023-04-04T03:12:32.035Z,-2.30
2023-04-04T03:14:17.432Z,-2.30
2023-04-04T03:16:04.911Z,-2.43
2023-04-04T03:17:47.355Z,-2.30
2023-04-04T03:19:20.734Z,-2.29
2023-04-04T03:20:54.047Z,-2.27
2023-04-04T03:22:36.677Z,-2.26
2023-04-04T03:24:10.853Z,-2.27
2023-04-04T03:25:56.240Z,-2.26
2023-04-04T03:27:30.147Z,-2.26
2023-04-04T03:29:15.977Z,-2.27
2023-04-04T03:31:08.753Z,-2.27
2023-04-04T03:32:56.749Z,-2.27
2023-04-04T03:34:38.939Z,-2.27
2023-04-04T03:36:27.084Z,-2.27
2023-04-04T03:38:02.791Z,-2.28
2023-04-04T03:39:39.467Z,-2.26
2023-04-04T03:41:24.946Z,-2.27
2023-04-04T03:43:10.425Z,-2.28
2023-04-04T03:44:39.368Z,-2.27
2023-04-04T03:46:24.952Z,-2.30
2023-04-04T03:47:49.531Z,-2.29
2023-04-04T03:49:36.063Z,-2.30
2023-04-04T03:51:12.572Z,-2.30
2023-04-04T03:53:06.353Z,-2.32
2023-04-04T03:54:49.695Z,-2.31
2023-04-04T03:56:22.469Z,-2.30
2023-04-04T03:57:46.384Z,-2.28
2023-04-04T03:59:21.562Z,-2.28
2023-04-04T04:01:02.442Z,-2.29
2023-04-04T04:02:37.958Z,-2.27
2023-04-04T04:04:23.110Z,-2.29
2023-04-04T04:06:07.002Z,-2.29
2023-04-04T04:07:35.916Z,-2.28
2023-04-04T04:09:21.212Z,-2.30
2023-04-04T04:11:02.169Z,-2.29
2023-04-04T04:12:38.137Z,-2.28
2023-04-04T04:14:11.893Z,-2.29
2023-04-04T04:15:45.296Z,-2.28
2023-04-04T04:17:25.506Z,-2.25
2023-04-04T04:19:01.735Z,-2.29
2023-04-04T04:20:42.468Z,-2.24
2023-04-04T04:22:16.677Z,-2.26
2023-04-04T04:23:52.362Z,-2.24
2023-04-04T04:25:26.092Z,-2.27
2023-04-04T04:27:31.732Z,-2.24
2023-04-04T04:29:07.342Z,-2.26
2023-04-04T04:30:41.158Z,-2.28
2023-04-04T04:32:26.883Z,-2.29
2023-04-04T04:34:11.732Z,-2.27
2023-04-04T04:35:48.740Z,-2.23
2023-04-04T04:37:34.417Z,-2.24
2023-04-04T04:39:20.370Z,-2.23
2023-04-04T04:41:58.461Z,-2.20
2023-04-04T04:43:45.598Z,-2.16
2023-04-04T04:45:19.114Z,-2.19
2023-04-04T04:46:50.756Z,-2.16
2023-04-04T04:48:29.107Z,-2.14
2023-04-04T04:50:05.326Z,-2.14
2023-04-04T04:52:07.408Z,-2.10
2023-04-04T04:53:52.918Z,-2.04
2023-04-04T04:55:25.976Z,-1.98
2023-04-04T04:57:08.036Z,-1.97
2023-04-04T04:58:48.818Z,-1.95
2023-04-04T05:00:41.728Z,-1.90
2023-04-04T05:02:15.899Z,-1.87
2023-04-04T05:03:52.059Z,-1.83
2023-04-04T05:05:31.350Z,-1.85
2023-04-04T05:07:08.642Z,-1.82
2023-04-04T05:08:44.272Z,-1.80
2023-04-04T05:11:07.090Z,-1.71
2023-04-04T05:12:52.256Z,-1.65
2023-04-04T05:14:43.171Z,-1.60
2023-04-04T05:16:20.445Z,-1.59
2023-04-04T05:17:55.844Z,-1.55
2023-04-04T05:19:29.240Z,-1.51
2023-04-04T05:21:10.366Z,-1.47
2023-04-04T05:22:55.901Z,-1.44
2023-04-04T05:24:49.205Z,-1.40
2023-04-04T05:26:21.123Z,-1.35
2023-04-04T05:28:05.468Z,-1.37
2023-04-04T05:29:54.541Z,-1.38
2023-04-04T05:31:39.977Z,-1.29
2023-04-04T05:33:28.478Z,-1.27
2023-04-04T05:35:45.177Z,-1.23
2023-04-04T05:37:30.588Z,-1.20
2023-04-04T05:39:07.314Z,-1.17
2023-04-04T05:40:57.898Z,-1.14
2023-04-04T05:42:22.633Z,-1.12
2023-04-04T05:43:47.389Z,-1.05
2023-04-04T05:45:43.484Z,-1.00
2023-04-04T05:47:28.794Z,-1.02
2023-04-04T05:49:00.769Z,-1.00
2023-04-04T05:50:36.709Z,-0.94
2023-04-04T05:52:01.532Z,-0.89
2023-04-04T05:53:36.505Z,-0.84
2023-04-04T05:55:10.048Z,-0.80
2023-04-04T05:56:43.637Z,-0.75
2023-04-04T05:58:13.732Z,-0.73
2023-04-04T06:00:05.973Z,-0.64
2023-04-04T06:01:49.746Z,-0.57
2023-04-04T06:03:44.518Z,-0.49
2023-04-04T06:05:32.048Z,-0.44
2023-04-04T06:07:08.108Z,-0.40
2023-04-04T06:08:52.905Z,-0.32
2023-04-04T06:10:27.504Z,-0.31
2023-04-04T06:12:13.816Z,-0.24
2023-04-04T06:13:59.057Z,-0.17
2023-04-04T06:15:40.533Z,-0.10
2023-04-04T06:17:21.720Z,-0.11
2023-04-04T06:19:07.136Z,-0.15
2023-04-04T06:20:52.023Z,-0.13
2023-04-04T06:22:37.349Z,-0.13
2023-04-04T06:24:19.053Z,-0.11
2023-04-04T06:26:04.388Z,-0.09
2023-04-04T06:27:40.182Z,-0.03
2023-04-04T06:29:16.409Z,-0.01
2023-04-04T06:31:01.623Z,0.03
2023-04-04T06:32:38.654Z,0.05
2023-04-04T06:34:01.893Z,0.00
2023-04-04T06:35:56.553Z,0.04
2023-04-04T06:37:31.898Z,0.13
2023-04-04T06:39:15.994Z,0.15
2023-04-04T06:40:56.021Z,0.18
2023-04-04T06:42:29.859Z,0.20
2023-04-04T06:44:08.821Z,0.20
2023-04-04T06:45:33.575Z,0.22
2023-04-04T06:47:05.045Z,0.25
2023-04-04T06:48:46.153Z,0.31
2023-04-04T06:50:19.716Z,0.36
2023-04-04T06:52:00.683Z,0.36
2023-04-04T06:53:34.825Z,0.33
2023-04-04T06:55:20.194Z,0.32
2023-04-04T06:56:55.683Z,0.35
2023-04-04T06:58:43.335Z,0.37
2023-04-04T07:00:28.918Z,0.41
2023-04-04T07:02:14.438Z,0.47
2023-04-04T07:03:59.261Z,0.51
2023-04-04T07:05:32.958Z,0.56
2023-04-04T07:07:18.294Z,0.62
2023-04-04T07:09:08.922Z,0.68
2023-04-04T07:10:49.348Z,0.74
2023-04-04T07:12:40.567Z,0.71
2023-04-04T07:14:26.297Z,0.78
2023-04-04T07:16:11.702Z,0.78
2023-04-04T07:17:47.486Z,0.81
2023-04-04T07:19:29.547Z,0.78
2023-04-04T07:21:05.109Z,0.82
2023-04-04T07:22:38.652Z,0.84
2023-04-04T07:24:14.648Z,0.82
2023-04-04T07:25:48.172Z,0.80
2023-04-04T07:27:21.926Z,0.80
2023-04-04T07:28:43.561Z,0.69
2023-04-04T07:30:28.918Z,0.79
2023-04-04T07:31:52.625Z,0.83
2023-04-04T07:33:37.516Z,0.78
2023-04-04T07:35:22.789Z,0.79
2023-04-04T07:36:58.456Z,0.86
2023-04-04T07:38:32.365Z,0.93
2023-04-04T07:40:05.497Z,0.95
2023-04-04T07:41:41.785Z,0.97
2023-04-04T07:43:17.711Z,0.94
2023-04-04T07:45:03.094Z,0.92
2023-04-04T07:46:24.622Z,0.89
2023-04-04T07:48:09.489Z,0.92
2023-04-04T07:49:33.432Z,1.01
2023-04-04T07:51:09.314Z,1.06
2023-04-04T07:53:03.457Z,1.12
2023-04-04T07:54:53.172Z,1.17
2023-04-04T07:56:38.811Z,1.21
2023-04-04T07:58:24.186Z,1.20
2023-04-04T08:00:06.713Z,1.14
2023-04-04T08:01:46.854Z,1.19
2023-04-04T08:03:28.433Z,1.17
2023-04-04T08:05:01.877Z,1.13
2023-04-04T08:06:37.456Z,1.06
2023-04-04T08:08:22.670Z,0.99
2023-04-04T08:10:07.434Z,0.93
2023-04-04T08:11:42.929Z,0.90
2023-04-04T08:13:16.726Z,0.88
2023-04-04T08:14:50.050Z,0.87
2023-04-04T08:16:39.490Z,0.87
2023-04-04T08:18:20.379Z,0.81
2023-04-04T08:19:56.588Z,0.77
2023-04-04T08:21:41.994Z,0.80
2023-04-04T08:23:15.213Z,0.77
2023-04-04T08:24:48.457Z,0.76
2023-04-04T08:26:22.170Z,0.77
2023-04-04T08:28:06.911Z,0.82
2023-04-04T08:29:47.257Z,0.78
2023-04-04T08:31:20.756Z,0.89
2023-04-04T08:32:56.009Z,0.87
2023-04-04T08:34:30.254Z,0.86
2023-04-04T08:36:03.712Z,0.91
2023-04-04T08:37:37.283Z,0.92
2023-04-04T08:39:10.979Z,0.89
2023-04-04T08:40:46.208Z,0.96
2023-04-04T08:42:21.246Z,1.01
2023-04-04T08:44:02.905Z,1.05
2023-04-04T08:45:34.356Z,1.08
2023-04-04T08:46:55.958Z,1.18
2023-04-04T08:48:31.789Z,1.32
2023-04-04T08:50:16.358Z,1.46
2023-04-04T08:51:42.111Z,1.52
2023-04-04T08:53:16.380Z,1.52
2023-04-04T08:54:51.503Z,1.52
2023-04-04T08:56:32.114Z,1.53
2023-04-04T08:58:17.358Z,1.46
2023-04-04T08:59:51.084Z,1.45
2023-04-04T09:01:36.238Z,1.44
2023-04-04T09:03:21.510Z,1.38
2023-04-04T09:04:58.463Z,1.39
2023-04-04T09:06:30.035Z,1.48
2023-04-04T09:07:59.176Z,1.54
2023-04-04T09:09:28.104Z,1.61
2023-04-04T09:11:08.792Z,1.66
2023-04-04T09:12:40.085Z,1.71
2023-04-04T09:14:21.118Z,1.76
2023-04-04T09:15:45.492Z,1.81
2023-04-04T09:17:20.374Z,1.82
2023-04-04T09:18:44.207Z,1.91
2023-04-04T09:20:10.985Z,1.97
2023-04-04T09:21:40.440Z,1.99
2023-04-04T09:23:14.892Z,1.95
2023-04-04T09:24:45.970Z,1.93
2023-04-04T09:26:21.951Z,1.90
2023-04-04T09:27:45.949Z,1.85
2023-04-04T09:29:15.450Z,1.84
2023-04-04T09:30:49.967Z,1.78
2023-04-04T09:32:26.019Z,1.79
2023-04-04T09:34:06.432Z,1.83
2023-04-04T09:35:30.798Z,1.86
2023-04-04T09:36:54.349Z,1.89
2023-04-04T09:38:28.362Z,1.91
2023-04-04T09:40:05.106Z,1.92
2023-04-04T09:41:49.811Z,1.98
2023-04-04T09:43:23.363Z,2.00
2023-04-04T09:44:56.576Z,2.05
2023-04-04T09:46:51.448Z,2.14
2023-04-04T09:48:26.993Z,2.27
2023-04-04T09:50:06.781Z,2.29
2023-04-04T09:51:53.060Z,2.28
2023-04-04T09:53:42.384Z,2.28
2023-04-04T09:55:18.033Z,2.20
2023-04-04T09:57:05.840Z,2.12
2023-04-04T09:59:02.415Z,2.05
2023-04-04T10:00:38.771Z,2.03
2023-04-04T10:02:03.160Z,2.01
2023-04-04T10:03:54.302Z,2.04
2023-04-04T10:05:47.510Z,2.17
2023-04-04T10:07:20.839Z,2.18
2023-04-04T10:08:45.731Z,2.19
2023-04-04T10:10:26.841Z,2.15
2023-04-04T10:12:12.387Z,2.16
2023-04-04T10:13:50.274Z,2.22
2023-04-04T10:15:35.960Z,2.18
2023-04-04T10:17:05.128Z,2.17
2023-04-04T10:18:40.880Z,2.18
2023-04-04T10:20:25.985Z,2.26
2023-04-04T10:22:01.688Z,2.28
2023-04-04T10:23:34.730Z,2.33
2023-04-04T10:25:19.642Z,2.30
2023-04-04T10:26:55.108Z,2.36
2023-04-04T10:28:41.472Z,2.35
2023-04-04T10:30:15.067Z,2.32
2023-04-04T10:31:39.213Z,2.32
2023-04-04T10:33:15.367Z,2.38
2023-04-04T10:35:05.297Z,2.45
2023-04-04T10:36:50.040Z,2.48
2023-04-04T10:38:24.129Z,2.53
2023-04-04T10:39:45.259Z,2.54
2023-04-04T10:41:30.513Z,2.53
2023-04-04T10:43:02.226Z,2.49
2023-04-04T10:44:56.433Z,2.46
2023-04-04T10:46:38.844Z,2.40
2023-04-04T10:48:14.865Z,2.33
2023-04-04T10:49:45.847Z,2.31
2023-04-04T10:51:21.453Z,2.32
2023-04-04T10:53:06.680Z,2.38
2023-04-04T10:54:51.739Z,2.38
2023-04-04T10:56:18.662Z,2.41
2023-04-04T10:57:40.533Z,2.40
2023-04-04T10:59:15.084Z,2.33
2023-04-04T11:00:59.900Z,2.29
2023-04-04T11:02:33.710Z,2.26
2023-04-04T11:03:55.668Z,2.33
2023-04-04T11:05:17.844Z,2.43
2023-04-04T11:07:02.908Z,2.52
2023-04-04T11:08:44.181Z,2.68
2023-04-04T11:10:25.386Z,2.74
2023-04-04T11:12:08.441Z,2.76
2023-04-04T11:13:41.873Z,2.74
2023-04-04T11:15:09.389Z,2.73
2023-04-04T11:16:44.643Z,2.74
2023-04-04T11:18:30.637Z,2.82
2023-04-04T11:20:06.466Z,2.83
2023-04-04T11:22:01.467Z,2.88
2023-04-04T11:23:43.202Z,2.89
2023-04-04T11:25:36.890Z,2.87
2023-04-04T11:27:10.504Z,3.04
2023-04-04T11:29:04.600Z,3.24
2023-04-04T11:30:58.212Z,3.22
2023-04-04T11:33:04.039Z,3.25
2023-04-04T11:35:00.273Z,3.10
2023-04-04T11:36:33.690Z,3.05
2023-04-04T11:38:06.843Z,3.06
2023-04-04T11:39:42.414Z,3.02
2023-04-04T11:41:23.035Z,2.94
2023-04-04T11:43:04.392Z,2.88
2023-04-04T11:44:37.468Z,2.82
2023-04-04T11:46:10.747Z,2.80
2023-04-04T11:47:46.199Z,2.71
2023-04-04T11:49:08.388Z,2.67
2023-04-04T11:50:53.202Z,2.61
2023-04-04T11:52:35.013Z,2.61
2023-04-04T11:54:15.724Z,2.68
2023-04-04T11:55:37.930Z,2.72
2023-04-04T11:57:00.335Z,2.81
2023-04-04T11:58:46.334Z,2.91
2023-04-04T12:00:09.021Z,2.99
2023-04-04T12:01:33.548Z,3.05
2023-04-04T12:03:19.088Z,3.09
2023-04-04T12:04:52.918Z,3.17
2023-04-04T12:06:22.125Z,3.27
2023-04-04T12:08:03.099Z,3.31
2023-04-04T12:09:37.058Z,3.35
2023-04-04T12:11:03.559Z,3.32
2023-04-04T12:12:44.267Z,3.24
2023-04-04T12:14:18.179Z,3.20
2023-04-04T12:15:58.481Z,3.15
2023-04-04T12:17:52.351Z,3.17
2023-04-04T12:19:41.530Z,3.07
2023-04-04T12:21:13.538Z,3.00
2023-04-04T12:22:50.586Z,3.02
2023-04-04T12:24:26.877Z,2.99
2023-04-04T12:26:12.087Z,3.06
2023-04-04T12:27:53.422Z,3.06
2023-04-04T12:29:41.645Z,3.19
2023-04-04T12:31:05.695Z,3.16
2023-04-04T12:32:39.312Z,3.18
2023-04-04T12:34:20.362Z,3.25
2023-04-04T12:36:13.536Z,3.31
2023-04-04T12:38:02.820Z,3.37
2023-04-04T12:39:47.292Z,3.35
2023-04-04T12:41:29.021Z,3.29
2023-04-04T12:43:02.066Z,3.28
2023-04-04T12:44:24.314Z,3.29
2023-04-04T12:45:50.277Z,3.32
2023-04-04T12:47:23.897Z,3.33
2023-04-04T12:48:57.748Z,3.14
2023-04-04T12:50:31.277Z,3.11
2023-04-04T12:52:12.305Z,3.00
2023-04-04T12:53:53.364Z,2.85
2023-04-04T12:55:36.444Z,2.74
2023-04-04T12:57:21.318Z,2.70
2023-04-04T12:59:02.180Z,2.73
2023-04-04T13:00:46.208Z,2.72
2023-04-04T13:02:17.804Z,2.68
2023-04-04T13:03:58.526Z,2.72
2023-04-04T13:05:28.240Z,2.75
2023-04-04T13:07:09.087Z,2.80
2023-04-04T13:08:52.514Z,2.82
2023-04-04T13:10:16.754Z,2.85
2023-04-04T13:12:10.153Z,2.81
2023-04-04T13:13:34.740Z,2.82
2023-04-04T13:15:20.116Z,2.71
2023-04-04T13:17:05.486Z,2.68
2023-04-04T13:18:50.460Z,2.68
2023-04-04T13:20:26.295Z,2.64
2023-04-04T13:21:55.475Z,2.60
2023-04-04T13:23:41.097Z,2.56
2023-04-04T13:25:16.710Z,2.50
2023-04-04T13:27:00.653Z,2.48
2023-04-04T13:28:36.256Z,2.49
2023-04-04T13:30:06.556Z,2.53
2023-04-04T13:31:31.607Z,2.55
2023-04-04T13:33:16.796Z,2.60
2023-04-04T13:34:51.780Z,2.68
2023-04-04T13:36:25.084Z,2.69
2023-04-04T13:37:58.632Z,2.75
2023-04-04T13:39:34.153Z,2.76
2023-04-04T13:40:55.814Z,2.67
2023-04-04T13:42:38.498Z,2.64
2023-04-04T13:44:24.814Z,2.70
2023-04-04T13:45:55.608Z,2.69
2023-04-04T13:47:18.154Z,2.73
2023-04-04T13:48:42.169Z,2.75
2023-04-04T13:50:24.169Z,2.84
2023-04-04T13:51:53.196Z,2.92
2023-04-04T13:53:26.859Z,3.04
2023-04-04T13:55:07.538Z,3.32
2023-04-04T13:56:48.425Z,3.42
2023-04-04T13:58:24.024Z,3.36
2023-04-04T13:59:57.657Z,3.23
2023-04-04T14:01:33.360Z,2.99
2023-04-04T14:03:19.643Z,2.99
2023-04-04T14:04:41.727Z,2.96
2023-04-04T14:06:25.798Z,2.95
2023-04-04T14:08:11.137Z,2.93
2023-04-04T14:09:46.505Z,2.89
2023-04-04T14:11:41.428Z,2.88
2023-04-04T14:13:17.756Z,2.88
2023-04-04T14:14:41.646Z,2.83
2023-04-04T14:16:04.525Z,2.79
2023-04-04T14:17:36.386Z,2.71
2023-04-04T14:19:07.435Z,2.65
2023-04-04T14:20:50.438Z,2.64
2023-04-04T14:22:35.632Z,2.66
2023-04-04T14:23:57.599Z,2.66
2023-04-04T14:25:19.511Z,2.69
2023-04-04T14:26:48.647Z,2.69
2023-04-04T14:28:22.811Z,2.67
2023-04-04T14:29:59.901Z,2.67
2023-04-04T14:31:49.055Z,2.71
2023-04-04T14:33:34.229Z,2.55
2023-04-04T14:35:07.922Z,2.52
2023-04-04T14:36:41.222Z,2.50
2023-04-04T14:38:03.545Z,2.52
2023-04-04T14:39:25.393Z,2.56
2023-04-04T14:41:00.971Z,2.52
2023-04-04T14:42:34.518Z,2.54
2023-04-04T14:44:07.644Z,2.57
2023-04-04T14:45:36.522Z,2.61
2023-04-04T14:47:21.301Z,2.64
2023-04-04T14:49:05.976Z,2.69
2023-04-04T14:50:46.840Z,2.67
2023-04-04T14:52:40.049Z,2.58
2023-04-04T14:54:16.168Z,2.51
2023-04-04T14:56:05.449Z,2.47
2023-04-04T14:57:51.870Z,2.46
2023-04-04T14:59:32.534Z,2.46
2023-04-04T15:01:17.701Z,2.74
2023-04-04T15:03:04.223Z,3.02
2023-04-04T15:04:59.945Z,3.29
2023-04-04T15:06:50.429Z,3.54
2023-04-04T15:08:35.381Z,3.63
2023-04-04T15:09:59.392Z,3.70
2023-04-04T15:11:44.448Z,3.90
2023-04-04T15:13:29.724Z,4.13
2023-04-04T15:15:05.691Z,4.25
2023-04-04T15:16:41.440Z,4.19
2023-04-04T15:18:27.344Z,4.09
2023-04-04T15:20:00.825Z,4.06
2023-04-04T15:21:36.578Z,3.96
2023-04-04T15:23:21.661Z,3.82
2023-04-04T15:25:07.445Z,3.76
2023-04-04T15:26:40.476Z,3.56
2023-04-04T15:28:13.742Z,3.45
2023-04-04T15:31:58.015Z,3.23
2023-04-04T15:33:33.827Z,3.13
2023-04-04T15:35:07.460Z,3.05
2023-04-04T15:36:36.469Z,2.96
2023-04-04T15:38:12.357Z,2.90
2023-04-04T15:39:53.558Z,2.84
2023-04-04T15:41:47.857Z,2.82
2023-04-04T15:43:42.447Z,2.83
2023-04-04T15:45:18.378Z,2.82
2023-04-04T15:46:51.789Z,2.79
2023-04-04T15:48:45.229Z,2.75
2023-04-04T15:50:14.799Z,2.78
2023-04-04T15:51:58.444Z,2.82
2023-04-04T15:53:34.196Z,2.91
2023-04-04T15:54:58.153Z,2.99
2023-04-04T15:56:46.810Z,3.00
2023-04-04T15:58:22.818Z,3.00
2023-04-04T16:00:07.745Z,2.99
2023-04-04T16:01:43.320Z,2.94
2023-04-04T16:03:28.475Z,2.90
2023-04-04T16:05:13.847Z,2.88
2023-04-04T16:06:50.353Z,2.91
2023-04-04T16:08:23.811Z,2.89
2023-04-04T16:10:09.086Z,2.87
2023-04-04T16:11:58.327Z,2.85
2023-04-04T16:13:47.587Z,2.83
2023-04-04T16:15:20.990Z,2.78
2023-04-04T16:17:15.415Z,2.71
2023-04-04T16:18:51.321Z,2.63
2023-04-04T16:20:25.007Z,2.58
2023-04-04T16:21:54.217Z,2.57
2023-04-04T16:23:21.199Z,2.50
2023-04-04T16:24:56.321Z,2.47
2023-04-04T16:26:20.725Z,2.47
2023-04-04T16:27:54.384Z,2.46
2023-04-04T16:29:30.726Z,2.45
2023-04-04T16:31:04.689Z,2.45
2023-04-04T16:32:46.962Z,2.44
2023-04-04T16:34:23.877Z,2.44
2023-04-04T16:35:57.341Z,2.42
2023-04-04T16:37:45.422Z,2.42
2023-04-04T16:39:27.648Z,2.29
2023-04-04T16:40:51.648Z,2.24
2023-04-04T16:42:19.206Z,2.28
2023-04-04T16:44:12.959Z,2.25
2023-04-04T16:46:02.728Z,2.22
2023-04-04T16:47:28.042Z,2.21
2023-04-04T16:49:13.794Z,2.22
2023-04-04T16:50:49.265Z,2.23
2023-04-04T16:52:23.369Z,2.22
2023-04-04T16:53:50.025Z,2.23
2023-04-04T16:55:26.195Z,2.24
2023-04-04T16:56:50.311Z,2.24
2023-04-04T16:58:24.147Z,2.20
2023-04-04T16:59:46.375Z,2.17
2023-04-04T17:01:22.376Z,2.15
2023-04-04T17:02:57.938Z,2.12
2023-04-04T17:04:20.516Z,2.07
2023-04-04T17:06:10.032Z,2.09
2023-04-04T17:07:54.845Z,2.07
2023-04-04T17:09:35.776Z,2.05
2023-04-04T17:11:09.342Z,2.02
2023-04-04T17:12:42.906Z,1.98
2023-04-04T17:14:28.743Z,1.95
2023-04-04T17:16:09.606Z,1.90
2023-04-04T17:17:52.425Z,1.90
2023-04-04T17:19:37.602Z,1.86
2023-04-04T17:21:13.499Z,1.82
2023-04-04T17:23:00.249Z,1.77
2023-04-04T17:24:37.421Z,1.73
2023-04-04T17:26:13.114Z,1.70
2023-04-04T17:27:47.162Z,1.66
2023-04-04T17:29:26.544Z,1.62
2023-04-04T17:31:11.821Z,1.58
2023-04-04T17:32:47.589Z,1.54
2023-04-04T17:34:21.420Z,1.51
2023-04-04T17:35:55.437Z,1.48
2023-04-04T17:37:36.701Z,1.42
2023-04-04T17:39:10.707Z,1.36
2023-04-04T17:40:44.206Z,1.32
2023-04-04T17:42:18.189Z,1.28
2023-04-04T17:44:07.674Z,1.23
2023-04-04T17:46:02.556Z,1.17
2023-04-04T17:47:33.905Z,1.12
2023-04-04T17:49:20.563Z,1.07
2023-04-04T17:50:54.653Z,1.03
2023-04-04T17:52:30.936Z,0.98
2023-04-04T17:54:06.837Z,0.93
2023-04-04T17:55:42.209Z,0.89
2023-04-04T17:57:15.514Z,0.86
2023-04-04T17:58:50.754Z,0.82
2023-04-04T18:00:13.496Z,0.79
2023-04-04T18:01:47.075Z,0.76
2023-04-04T18:03:23.048Z,0.71
2023-04-04T18:04:59.284Z,0.67
2023-04-04T18:06:26.685Z,0.62
2023-04-04T18:08:04.882Z,0.58
2023-04-04T18:09:29.088Z,0.55
2023-04-04T18:10:58.854Z,0.52
2023-04-04T18:12:35.819Z,0.50
2023-04-04T18:14:11.892Z,0.47
2023-04-04T18:15:53.243Z,0.43
2023-04-04T18:17:29.845Z,0.39
2023-04-04T18:19:03.540Z,0.34
2023-04-04T18:20:52.223Z,0.34
2023-04-04T18:22:27.071Z,0.29
2023-04-04T18:24:08.103Z,0.26
2023-04-04T18:25:44.106Z,0.25
2023-04-04T18:27:39.479Z,0.22
2023-04-04T18:29:32.928Z,0.21
2023-04-04T18:31:18.492Z,0.18
2023-04-04T18:32:52.669Z,0.14
2023-04-04T18:34:45.711Z,0.10
2023-04-04T18:36:19.559Z,0.08
2023-04-04T18:37:53.344Z,0.05
2023-04-04T18:39:29.229Z,0.01
2023-04-04T18:40:52.896Z,-0.02
2023-04-04T18:42:43.445Z,-0.03
2023-04-04T18:44:17.400Z,-0.03
2023-04-04T18:46:11.900Z,-0.05
2023-04-04T18:48:05.460Z,-0.06
2023-04-04T18:49:41.772Z,-0.06
2023-04-04T18:51:07.015Z,-0.12
2023-04-04T18:52:48.015Z,-0.06
2023-04-04T18:54:21.788Z,-0.07
2023-04-04T18:56:06.113Z,-0.09
2023-04-04T18:57:50.068Z,-0.09
2023-04-04T18:59:22.247Z,-0.09
2023-04-04T19:00:55.932Z,-0.08
2023-04-04T19:02:41.705Z,-0.09
2023-04-04T19:04:17.591Z,-0.09
2023-04-04T19:05:54.628Z,-0.09
2023-04-04T19:07:21.877Z,-0.08
2023-04-04T19:09:08.745Z,-0.08
2023-04-04T19:10:53.870Z,-0.08
2023-04-04T19:12:27.554Z,-0.05
2023-04-04T19:14:08.982Z,-0.01
2023-04-04T19:15:43.010Z,0.02
2023-04-04T19:17:07.147Z,0.03
2023-04-04T19:18:44.365Z,0.07
2023-04-04T19:20:17.865Z,0.04
2023-04-04T19:21:47.822Z,0.15
2023-04-04T19:23:10.315Z,0.19
2023-04-04T19:24:32.254Z,0.21
2023-04-04T19:26:03.920Z,0.24
2023-04-04T19:27:28.485Z,0.25
2023-04-04T19:29:14.842Z,0.26
2023-04-04T19:31:01.018Z,0.34
2023-04-04T19:32:34.907Z,0.36
2023-04-04T19:36:08.151Z,0.42
2023-04-04T19:37:37.480Z,0.44
2023-04-04T19:39:02.130Z,0.45
2023-04-04T19:40:36.046Z,0.45
2023-04-04T19:42:12.278Z,0.47
2023-04-04T19:43:53.945Z,0.48
2023-04-04T19:45:39.243Z,0.49
